sensor_id;sensor_type;location;lat;lon;timestamp;temperature;humidity
26503;DHT22;14177;51.520;6.764;2024-03-23T00:52:28;7.40;99.90
26503;DHT22;14177;51.520;6.764;2024-03-23T00:54:53;7.40;99.90
26503;DHT22;14177;51.520;6.764;2024-03-23T00:57:19;7.40;99.90
26503;DHT22;14177;51.520;6.764;2024-03-23T00:59:45;7.40;99.90
26503;DHT22;14177;51.520;6.764;2024-03-23T01:02:11;7.40;99.90
26503;DHT22;14177;51.520;6.764;2024-03-23T01:04:37;7.30;99.90
26503;DHT22;14177;51.520;6.764;2024-03-23T01:07:03;7.40;99.90
26503;DHT22;14177;51.520;6.764;2024-03-23T01:09:29;7.40;99.90
26503;DHT22;14177;51.520;6.764;2024-03-23T01:11:55;7.40;99.90
26503;DHT22;14177;51.520;6.764;2024-03-23T01:14:21;7.30;99.90
26503;DHT22;14177;51.520;6.764;2024-03-23T01:16:48;7.30;99.90
26503;DHT22;14177;51.520;6.764;2024-03-23T01:19:14;7.30;99.90
26503;DHT22;14177;51.520;6.764;2024-03-23T01:21:40;7.30;99.90
26503;DHT22;14177;51.520;6.764;2024-03-23T01:24:06;7.20;99.90
26503;DHT22;14177;51.520;6.764;2024-03-23T01:26:34;7.30;99.90
26503;DHT22;14177;51.520;6.764;2024-03-23T01:29:00;7.20;99.90
26503;DHT22;14177;51.520;6.764;2024-03-23T01:31:26;7.20;99.90
26503;DHT22;14177;51.520;6.764;2024-03-23T01:33:52;7.30;99.90
26503;DHT22;14177;51.520;6.764;2024-03-23T01:36:18;7.20;99.90
26503;DHT22;14177;51.520;6.764;2024-03-23T01:38:45;7.20;99.90
26503;DHT22;14177;51.520;6.764;2024-03-23T01:41:11;7.20;99.90
26503;DHT22;14177;51.520;6.764;2024-03-23T01:43:37;7.30;99.90
26503;DHT22;14177;51.520;6.764;2024-03-23T01:46:03;7.20;99.90
26503;DHT22;14177;51.520;6.764;2024-03-23T01:48:29;7.20;99.90
26503;DHT22;14177;51.520;6.764;2024-03-23T01:50:55;7.10;99.90
26503;DHT22;14177;51.520;6.764;2024-03-23T01:53:22;7.10;99.90
26503;DHT22;14177;51.520;6.764;2024-03-23T01:55:50;7.10;99.90
26503;DHT22;14177;51.520;6.764;2024-03-23T01:58:17;7.10;99.90
26503;DHT22;14177;51.520;6.764;2024-03-23T02:00:43;7.10;99.90
26503;DHT22;14177;51.520;6.764;2024-03-23T02:03:22;7.10;99.90
26503;DHT22;14177;51.520;6.764;2024-03-23T02:05:56;7.10;99.90
26503;DHT22;14177;51.520;6.764;2024-03-23T02:08:23;7.10;99.90
26503;DHT22;14177;51.520;6.764;2024-03-23T02:10:50;7.20;99.90
26503;DHT22;14177;51.520;6.764;2024-03-23T02:13:18;7.20;99.90
26503;DHT22;14177;51.520;6.764;2024-03-23T02:15:44;7.20;99.90
26503;DHT22;14177;51.520;6.764;2024-03-23T02:18:11;7.20;99.90
26503;DHT22;14177;51.520;6.764;2024-03-23T02:20:38;7.20;99.90
26503;DHT22;14177;51.520;6.764;2024-03-23T02:23:04;7.20;99.90
26503;DHT22;14177;51.520;6.764;2024-03-23T02:25:34;7.20;99.90
26503;DHT22;14177;51.520;6.764;2024-03-23T02:28:00;7.10;99.90
26503;DHT22;14177;51.520;6.764;2024-03-23T02:30:26;7.10;99.90
26503;DHT22;14177;51.520;6.764;2024-03-23T02:32:52;7.20;99.90
26503;DHT22;14177;51.520;6.764;2024-03-23T02:35:18;7.10;99.90
26503;DHT22;14177;51.520;6.764;2024-03-23T02:37:46;7.20;99.90
26503;DHT22;14177;51.520;6.764;2024-03-23T02:40:15;7.20;99.90
26503;DHT22;14177;51.520;6.764;2024-03-23T02:42:41;7.20;99.90
26503;DHT22;14177;51.520;6.764;2024-03-23T02:45:07;7.20;99.90
26503;DHT22;14177;51.520;6.764;2024-03-23T02:47:34;7.20;99.90
26503;DHT22;14177;51.520;6.764;2024-03-23T02:50:00;7.20;99.90
26503;DHT22;14177;51.520;6.764;2024-03-23T02:52:26;7.20;99.90
26503;DHT22;14177;51.520;6.764;2024-03-23T02:54:52;7.10;99.90
26503;DHT22;14177;51.520;6.764;2024-03-23T02:57:18;7.20;99.90
26503;DHT22;14177;51.520;6.764;2024-03-23T02:59:44;7.10;99.90
26503;DHT22;14177;51.520;6.764;2024-03-23T03:02:12;7.00;99.90
26503;DHT22;14177;51.520;6.764;2024-03-23T03:04:39;6.90;99.90
26503;DHT22;14177;51.520;6.764;2024-03-23T03:07:05;6.80;99.90
26503;DHT22;14177;51.520;6.764;2024-03-23T03:09:31;6.80;99.90
26503;DHT22;14177;51.520;6.764;2024-03-23T03:11:58;6.70;99.90
26503;DHT22;14177;51.520;6.764;2024-03-23T03:14:24;6.70;99.90
26503;DHT22;14177;51.520;6.764;2024-03-23T03:16:50;6.60;99.90
26503;DHT22;14177;51.520;6.764;2024-03-23T03:19:16;6.60;99.90
26503;DHT22;14177;51.520;6.764;2024-03-23T03:21:43;6.60;99.90
26503;DHT22;14177;51.520;6.764;2024-03-23T03:24:09;6.50;99.90
26503;DHT22;14177;51.520;6.764;2024-03-23T03:26:35;6.50;99.90
26503;DHT22;14177;51.520;6.764;2024-03-23T03:29:02;6.50;99.90
26503;DHT22;14177;51.520;6.764;2024-03-23T03:31:28;6.50;99.90
26503;DHT22;14177;51.520;6.764;2024-03-23T03:33:54;6.50;99.90
26503;DHT22;14177;51.520;6.764;2024-03-23T03:36:20;6.50;99.90
26503;DHT22;14177;51.520;6.764;2024-03-23T03:38:46;6.40;99.90
26503;DHT22;14177;51.520;6.764;2024-03-23T03:41:12;6.50;99.90
26503;DHT22;14177;51.520;6.764;2024-03-23T03:43:38;6.40;99.90
26503;DHT22;14177;51.520;6.764;2024-03-23T03:46:04;6.50;99.90
26503;DHT22;14177;51.520;6.764;2024-03-23T03:48:31;6.40;99.90
26503;DHT22;14177;51.520;6.764;2024-03-23T03:50:56;6.40;99.90
26503;DHT22;14177;51.520;6.764;2024-03-23T03:53:22;6.40;99.90
26503;DHT22;14177;51.520;6.764;2024-03-23T03:55:48;6.40;99.90
26503;DHT22;14177;51.520;6.764;2024-03-23T03:58:14;6.40;99.90
26503;DHT22;14177;51.520;6.764;2024-03-23T04:00:41;6.40;99.90
26503;DHT22;14177;51.520;6.764;2024-03-23T04:03:07;6.40;99.90
26503;DHT22;14177;51.520;6.764;2024-03-23T04:05:33;6.40;99.90
26503;DHT22;14177;51.520;6.764;2024-03-23T04:07:59;6.30;99.90
26503;DHT22;14177;51.520;6.764;2024-03-23T04:10:25;6.40;99.90
26503;DHT22;14177;51.520;6.764;2024-03-23T04:12:52;6.30;99.90
26503;DHT22;14177;51.520;6.764;2024-03-23T04:15:20;6.40;99.90
26503;DHT22;14177;51.520;6.764;2024-03-23T04:17:46;6.40;99.90
26503;DHT22;14177;51.520;6.764;2024-03-23T04:20:13;6.40;99.90
26503;DHT22;14177;51.520;6.764;2024-03-23T04:22:43;6.40;99.90
26503;DHT22;14177;51.520;6.764;2024-03-23T04:25:09;6.30;99.90
26503;DHT22;14177;51.520;6.764;2024-03-23T04:27:37;6.40;99.90
26503;DHT22;14177;51.520;6.764;2024-03-23T04:30:03;6.40;99.90
26503;DHT22;14177;51.520;6.764;2024-03-23T04:32:36;6.40;99.90
26503;DHT22;14177;51.520;6.764;2024-03-23T04:35:03;6.40;99.90
26503;DHT22;14177;51.520;6.764;2024-03-23T04:37:34;6.40;99.90
26503;DHT22;14177;51.520;6.764;2024-03-23T04:40:01;6.40;99.90
26503;DHT22;14177;51.520;6.764;2024-03-23T04:42:29;6.50;99.90
26503;DHT22;14177;51.520;6.764;2024-03-23T04:44:56;6.40;99.90
26503;DHT22;14177;51.520;6.764;2024-03-23T04:47:22;6.50;99.90
26503;DHT22;14177;51.520;6.764;2024-03-23T04:49:48;6.40;99.90
26503;DHT22;14177;51.520;6.764;2024-03-23T04:52:16;6.40;99.90
26503;DHT22;14177;51.520;6.764;2024-03-23T04:54:43;6.50;99.90
26503;DHT22;14177;51.520;6.764;2024-03-23T04:57:09;6.50;99.90
26503;DHT22;14177;51.520;6.764;2024-03-23T04:59:35;6.50;99.90
26503;DHT22;14177;51.520;6.764;2024-03-23T05:02:01;6.50;99.90
26503;DHT22;14177;51.520;6.764;2024-03-23T05:04:28;6.50;99.90
26503;DHT22;14177;51.520;6.764;2024-03-23T05:06:54;6.40;99.90
26503;DHT22;14177;51.520;6.764;2024-03-23T05:09:22;6.40;99.90
26503;DHT22;14177;51.520;6.764;2024-03-23T05:11:48;6.50;99.90
26503;DHT22;14177;51.520;6.764;2024-03-23T05:14:14;6.50;99.90
26503;DHT22;14177;51.520;6.764;2024-03-23T05:16:40;6.50;99.90
26503;DHT22;14177;51.520;6.764;2024-03-23T05:19:06;6.40;99.90
26503;DHT22;14177;51.520;6.764;2024-03-23T05:21:33;6.40;99.90
26503;DHT22;14177;51.520;6.764;2024-03-23T05:23:59;6.40;99.90
26503;DHT22;14177;51.520;6.764;2024-03-23T05:26:25;6.40;99.90
26503;DHT22;14177;51.520;6.764;2024-03-23T05:28:51;6.40;99.90
26503;DHT22;14177;51.520;6.764;2024-03-23T05:31:27;6.40;99.90
26503;DHT22;14177;51.520;6.764;2024-03-23T05:33:54;6.50;99.90
26503;DHT22;14177;51.520;6.764;2024-03-23T05:36:20;6.40;99.90
26503;DHT22;14177;51.520;6.764;2024-03-23T05:38:46;6.50;99.90
26503;DHT22;14177;51.520;6.764;2024-03-23T05:41:12;6.50;99.90
26503;DHT22;14177;51.520;6.764;2024-03-23T05:43:38;6.40;99.90
26503;DHT22;14177;51.520;6.764;2024-03-23T05:46:04;6.40;99.90
26503;DHT22;14177;51.520;6.764;2024-03-23T05:48:31;6.50;99.90
26503;DHT22;14177;51.520;6.764;2024-03-23T05:50:57;6.50;99.90
26503;DHT22;14177;51.520;6.764;2024-03-23T05:53:24;6.50;99.90
26503;DHT22;14177;51.520;6.764;2024-03-23T05:56:01;6.40;99.90
26503;DHT22;14177;51.520;6.764;2024-03-23T05:58:32;6.40;99.90
26503;DHT22;14177;51.520;6.764;2024-03-23T06:00:59;6.40;99.90
26503;DHT22;14177;51.520;6.764;2024-03-23T06:03:27;6.30;99.90
26503;DHT22;14177;51.520;6.764;2024-03-23T06:05:54;6.30;99.90
26503;DHT22;14177;51.520;6.764;2024-03-23T06:08:21;6.20;99.90
26503;DHT22;14177;51.520;6.764;2024-03-23T06:10:48;6.20;99.90
26503;DHT22;14177;51.520;6.764;2024-03-23T06:13:14;6.20;99.90
26503;DHT22;14177;51.520;6.764;2024-03-23T06:15:40;6.20;99.90
26503;DHT22;14177;51.520;6.764;2024-03-23T06:18:06;6.20;99.90
26503;DHT22;14177;51.520;6.764;2024-03-23T06:20:34;6.20;99.90
26503;DHT22;14177;51.520;6.764;2024-03-23T06:23:03;6.10;99.90
26503;DHT22;14177;51.520;6.764;2024-03-23T06:25:29;6.10;99.90
26503;DHT22;14177;51.520;6.764;2024-03-23T06:27:56;6.20;99.90
26503;DHT22;14177;51.520;6.764;2024-03-23T06:30:24;6.20;99.90
26503;DHT22;14177;51.520;6.764;2024-03-23T06:32:50;6.30;99.90
26503;DHT22;14177;51.520;6.764;2024-03-23T06:35:16;6.30;99.90
26503;DHT22;14177;51.520;6.764;2024-03-23T06:37:42;6.30;99.90
26503;DHT22;14177;51.520;6.764;2024-03-23T06:40:08;6.40;99.90
26503;DHT22;14177;51.520;6.764;2024-03-23T06:42:36;6.40;99.90
26503;DHT22;14177;51.520;6.764;2024-03-23T06:45:03;6.40;99.90
26503;DHT22;14177;51.520;6.764;2024-03-23T06:47:30;6.50;99.90
26503;DHT22;14177;51.520;6.764;2024-03-23T06:49:57;6.50;99.90
26503;DHT22;14177;51.520;6.764;2024-03-23T06:52:23;6.50;99.90
26503;DHT22;14177;51.520;6.764;2024-03-23T06:54:49;6.50;99.90
26503;DHT22;14177;51.520;6.764;2024-03-23T06:57:15;6.60;99.90
26503;DHT22;14177;51.520;6.764;2024-03-23T06:59:41;6.70;99.90
26503;DHT22;14177;51.520;6.764;2024-03-23T07:02:09;6.70;99.90
26503;DHT22;14177;51.520;6.764;2024-03-23T07:04:35;6.80;99.90
26503;DHT22;14177;51.520;6.764;2024-03-23T07:07:02;6.80;99.90
26503;DHT22;14177;51.520;6.764;2024-03-23T07:09:29;6.80;99.90
26503;DHT22;14177;51.520;6.764;2024-03-23T07:11:58;6.90;99.90
26503;DHT22;14177;51.520;6.764;2024-03-23T07:14:25;7.10;99.90
26503;DHT22;14177;51.520;6.764;2024-03-23T07:16:51;7.20;99.90
26503;DHT22;14177;51.520;6.764;2024-03-23T07:19:18;7.20;99.90
26503;DHT22;14177;51.520;6.764;2024-03-23T07:21:44;7.30;99.90
26503;DHT22;14177;51.520;6.764;2024-03-23T07:24:11;7.40;99.90
26503;DHT22;14177;51.520;6.764;2024-03-23T07:26:37;7.60;99.90
26503;DHT22;14177;51.520;6.764;2024-03-23T07:29:05;7.70;99.90
26503;DHT22;14177;51.520;6.764;2024-03-23T07:31:32;7.70;99.90
26503;DHT22;14177;51.520;6.764;2024-03-23T07:33:58;7.90;99.90
26503;DHT22;14177;51.520;6.764;2024-03-23T07:36:24;8.10;99.90
26503;DHT22;14177;51.520;6.764;2024-03-23T07:38:51;8.30;99.90
26503;DHT22;14177;51.520;6.764;2024-03-23T07:41:19;8.40;99.90
26503;DHT22;14177;51.520;6.764;2024-03-23T07:43:47;8.30;99.90
26503;DHT22;14177;51.520;6.764;2024-03-23T07:46:15;8.60;99.90
26503;DHT22;14177;51.520;6.764;2024-03-23T07:48:41;8.70;99.90
26503;DHT22;14177;51.520;6.764;2024-03-23T07:51:18;8.80;99.90
26503;DHT22;14177;51.520;6.764;2024-03-23T07:53:46;8.90;99.90
26503;DHT22;14177;51.520;6.764;2024-03-23T07:56:13;8.70;99.90
26503;DHT22;14177;51.520;6.764;2024-03-23T07:58:44;8.80;99.90
26503;DHT22;14177;51.520;6.764;2024-03-23T08:01:13;8.90;99.90
26503;DHT22;14177;51.520;6.764;2024-03-23T08:03:41;9.00;99.90
26503;DHT22;14177;51.520;6.764;2024-03-23T08:06:18;9.10;99.90
26503;DHT22;14177;51.520;6.764;2024-03-23T08:08:52;9.20;99.90
26503;DHT22;14177;51.520;6.764;2024-03-23T08:11:29;9.40;99.90
26503;DHT22;14177;51.520;6.764;2024-03-23T08:13:56;9.40;99.90
26503;DHT22;14177;51.520;6.764;2024-03-23T08:16:24;9.50;99.90
26503;DHT22;14177;51.520;6.764;2024-03-23T08:18:54;9.50;99.90
26503;DHT22;14177;51.520;6.764;2024-03-23T08:21:23;9.50;99.90
26503;DHT22;14177;51.520;6.764;2024-03-23T08:23:51;9.70;99.90
26503;DHT22;14177;51.520;6.764;2024-03-23T08:26:16;9.60;99.30
26503;DHT22;14177;51.520;6.764;2024-03-23T08:28:45;9.50;97.90
26503;DHT22;14177;51.520;6.764;2024-03-23T08:31:13;9.50;99.90
26503;DHT22;14177;51.520;6.764;2024-03-23T08:33:40;9.40;99.90
26503;DHT22;14177;51.520;6.764;2024-03-23T08:36:09;9.40;99.90
26503;DHT22;14177;51.520;6.764;2024-03-23T08:38:40;9.30;99.90
26503;DHT22;14177;51.520;6.764;2024-03-23T08:41:10;9.30;99.90
26503;DHT22;14177;51.520;6.764;2024-03-23T08:43:41;9.30;99.90
26503;DHT22;14177;51.520;6.764;2024-03-23T08:46:12;9.40;99.90
26503;DHT22;14177;51.520;6.764;2024-03-23T08:48:44;9.20;99.90
26503;DHT22;14177;51.520;6.764;2024-03-23T08:51:13;9.20;99.90
26503;DHT22;14177;51.520;6.764;2024-03-23T08:53:41;9.40;19.50
26503;DHT22;14177;51.520;6.764;2024-03-23T08:56:08;9.50;12.50
26503;DHT22;14177;51.520;6.764;2024-03-23T08:58:36;9.60;13.20
26503;DHT22;14177;51.520;6.764;2024-03-23T09:01:08;9.70;19.90
26503;DHT22;14177;51.520;6.764;2024-03-23T09:03:36;10.00;18.00
26503;DHT22;14177;51.520;6.764;2024-03-23T09:06:07;10.20;1.00
26503;DHT22;14177;51.520;6.764;2024-03-23T09:08:34;10.20;1.00
26503;DHT22;14177;51.520;6.764;2024-03-23T09:11:09;9.90;1.00
26503;DHT22;14177;51.520;6.764;2024-03-23T09:13:37;9.50;1.00
26503;DHT22;14177;51.520;6.764;2024-03-23T09:16:05;9.90;11.60
26503;DHT22;14177;51.520;6.764;2024-03-23T09:18:35;10.20;1.00
26503;DHT22;14177;51.520;6.764;2024-03-23T09:21:03;10.10;1.00
26503;DHT22;14177;51.520;6.764;2024-03-23T09:23:30;10.20;1.00
26503;DHT22;14177;51.520;6.764;2024-03-23T09:25:56;10.40;1.00
26503;DHT22;14177;51.520;6.764;2024-03-23T09:28:22;10.50;1.00
26503;DHT22;14177;51.520;6.764;2024-03-23T09:30:48;10.70;1.00
26503;DHT22;14177;51.520;6.764;2024-03-23T09:33:14;10.60;1.00
26503;DHT22;14177;51.520;6.764;2024-03-23T09:35:42;10.70;1.00
26503;DHT22;14177;51.520;6.764;2024-03-23T09:38:08;10.60;1.00
26503;DHT22;14177;51.520;6.764;2024-03-23T09:40:45;10.20;1.00
26503;DHT22;14177;51.520;6.764;2024-03-23T09:43:15;9.60;1.00
26503;DHT22;14177;51.520;6.764;2024-03-23T09:45:42;9.70;1.00
26503;DHT22;14177;51.520;6.764;2024-03-23T09:48:10;10.30;75.50
26503;DHT22;14177;51.520;6.764;2024-03-23T09:50:40;10.60;90.90
26503;DHT22;14177;51.520;6.764;2024-03-23T09:53:12;10.40;94.00
26503;DHT22;14177;51.520;6.764;2024-03-23T09:55:40;10.50;93.40
26503;DHT22;14177;51.520;6.764;2024-03-23T09:58:08;10.30;92.40
26503;DHT22;14177;51.520;6.764;2024-03-23T10:00:37;10.40;91.40
26503;DHT22;14177;51.520;6.764;2024-03-23T10:03:04;10.40;94.90
26503;DHT22;14177;51.520;6.764;2024-03-23T10:05:32;10.10;92.50
26503;DHT22;14177;51.520;6.764;2024-03-23T10:10:41;9.80;92.60
26503;DHT22;14177;51.520;6.764;2024-03-23T10:13:07;10.00;93.70
26503;DHT22;14177;51.520;6.764;2024-03-23T10:15:35;10.40;91.00
26503;DHT22;14177;51.520;6.764;2024-03-23T10:18:18;10.20;91.30
26503;DHT22;14177;51.520;6.764;2024-03-23T10:21:06;10.60;93.70
26503;DHT22;14177;51.520;6.764;2024-03-23T10:23:40;10.60;91.30
26503;DHT22;14177;51.520;6.764;2024-03-23T10:26:18;10.40;87.90
26503;DHT22;14177;51.520;6.764;2024-03-23T10:28:58;10.30;89.10
26503;DHT22;14177;51.520;6.764;2024-03-23T10:31:37;10.60;87.90
26503;DHT22;14177;51.520;6.764;2024-03-23T10:34:04;10.60;85.30
26503;DHT22;14177;51.520;6.764;2024-03-23T10:36:30;10.20;83.60
26503;DHT22;14177;51.520;6.764;2024-03-23T10:38:56;9.90;87.90
26503;DHT22;14177;51.520;6.764;2024-03-23T10:41:32;9.50;89.90
26503;DHT22;14177;51.520;6.764;2024-03-23T10:43:59;9.20;90.50
26503;DHT22;14177;51.520;6.764;2024-03-23T10:46:27;8.60;90.50
26503;DHT22;14177;51.520;6.764;2024-03-23T10:48:54;8.50;91.50
26503;DHT22;14177;51.520;6.764;2024-03-23T10:51:20;8.50;92.00
26503;DHT22;14177;51.520;6.764;2024-03-23T10:53:46;8.50;91.60
26503;DHT22;14177;51.520;6.764;2024-03-23T10:56:13;8.70;91.70
26503;DHT22;14177;51.520;6.764;2024-03-23T10:58:45;8.60;91.40
26503;DHT22;14177;51.520;6.764;2024-03-23T11:01:14;8.90;92.70
26503;DHT22;14177;51.520;6.764;2024-03-23T11:03:47;9.30;91.80
26503;DHT22;14177;51.520;6.764;2024-03-23T11:06:36;9.50;91.60
26503;DHT22;14177;51.520;6.764;2024-03-23T11:09:04;9.70;91.90
26503;DHT22;14177;51.520;6.764;2024-03-23T11:11:50;10.00;92.80
26503;DHT22;14177;51.520;6.764;2024-03-23T11:14:22;10.40;92.80
26503;DHT22;14177;51.520;6.764;2024-03-23T11:17:08;10.70;91.00
26503;DHT22;14177;51.520;6.764;2024-03-23T11:19:36;10.80;92.70
26503;DHT22;14177;51.520;6.764;2024-03-23T11:22:04;10.70;93.40
26503;DHT22;14177;51.520;6.764;2024-03-23T11:24:34;10.90;91.80
26503;DHT22;14177;51.520;6.764;2024-03-23T11:27:00;11.00;91.50
26503;DHT22;14177;51.520;6.764;2024-03-23T11:29:30;11.70;91.90
26503;DHT22;14177;51.520;6.764;2024-03-23T11:31:56;11.70;90.10
26503;DHT22;14177;51.520;6.764;2024-03-23T11:34:23;12.20;91.00
26503;DHT22;14177;51.520;6.764;2024-03-23T11:36:49;12.60;90.80
26503;DHT22;14177;51.520;6.764;2024-03-23T11:39:20;12.70;90.30
26503;DHT22;14177;51.520;6.764;2024-03-23T11:44:20;12.90;90.60
26503;DHT22;14177;51.520;6.764;2024-03-23T11:46:48;12.50;89.60
26503;DHT22;14177;51.520;6.764;2024-03-23T11:49:28;12.20;91.10
26503;DHT22;14177;51.520;6.764;2024-03-23T11:51:58;11.70;91.70
26503;DHT22;14177;51.520;6.764;2024-03-23T11:54:26;11.70;92.50
26503;DHT22;14177;51.520;6.764;2024-03-23T11:56:57;11.20;92.70
26503;DHT22;14177;51.520;6.764;2024-03-23T12:01:58;10.90;90.80
26503;DHT22;14177;51.520;6.764;2024-03-23T12:04:28;10.80;90.70
26503;DHT22;14177;51.520;6.764;2024-03-23T12:07:17;10.60;91.20
26503;DHT22;14177;51.520;6.764;2024-03-23T12:09:45;10.50;90.90
26503;DHT22;14177;51.520;6.764;2024-03-23T12:12:16;10.50;92.00
26503;DHT22;14177;51.520;6.764;2024-03-23T12:14:44;11.00;91.30
26503;DHT22;14177;51.520;6.764;2024-03-23T12:17:12;11.70;90.80
26503;DHT22;14177;51.520;6.764;2024-03-23T12:19:40;12.40;92.40
26503;DHT22;14177;51.520;6.764;2024-03-23T12:22:08;12.40;90.20
26503;DHT22;14177;51.520;6.764;2024-03-23T12:24:35;12.60;85.80
26503;DHT22;14177;51.520;6.764;2024-03-23T12:27:02;12.70;84.60
26503;DHT22;14177;51.520;6.764;2024-03-23T12:29:34;12.30;84.50
26503;DHT22;14177;51.520;6.764;2024-03-23T12:32:01;12.40;86.20
26503;DHT22;14177;51.520;6.764;2024-03-23T12:34:28;12.80;84.80
26503;DHT22;14177;51.520;6.764;2024-03-23T12:36:56;12.10;83.50
26503;DHT22;14177;51.520;6.764;2024-03-23T12:39:22;11.60;85.70
26503;DHT22;14177;51.520;6.764;2024-03-23T12:41:49;11.10;86.10
26503;DHT22;14177;51.520;6.764;2024-03-23T12:44:15;10.70;90.80
26503;DHT22;14177;51.520;6.764;2024-03-23T12:46:42;10.30;91.50
26503;DHT22;14177;51.520;6.764;2024-03-23T12:49:08;10.30;92.70
26503;DHT22;14177;51.520;6.764;2024-03-23T12:51:34;9.40;97.20
26503;DHT22;14177;51.520;6.764;2024-03-23T12:54:00;9.00;99.50
26503;DHT22;14177;51.520;6.764;2024-03-23T12:56:30;9.00;99.70
26503;DHT22;14177;51.520;6.764;2024-03-23T12:58:58;8.70;98.70
26503;DHT22;14177;51.520;6.764;2024-03-23T13:01:25;8.70;90.50
26503;DHT22;14177;51.520;6.764;2024-03-23T13:03:51;8.40;24.10
26503;DHT22;14177;51.520;6.764;2024-03-23T13:06:18;8.20;36.60
26503;DHT22;14177;51.520;6.764;2024-03-23T13:08:45;8.20;45.70
26503;DHT22;14177;51.520;6.764;2024-03-23T13:11:12;8.10;42.20
26503;DHT22;14177;51.520;6.764;2024-03-23T13:13:42;7.90;50.40
26503;DHT22;14177;51.520;6.764;2024-03-23T13:16:08;7.70;47.40
26503;DHT22;14177;51.520;6.764;2024-03-23T13:18:34;7.80;60.00
26503;DHT22;14177;51.520;6.764;2024-03-23T13:21:01;7.70;50.90
26503;DHT22;14177;51.520;6.764;2024-03-23T13:23:28;7.70;59.10
26503;DHT22;14177;51.520;6.764;2024-03-23T13:25:55;7.80;63.90
26503;DHT22;14177;51.520;6.764;2024-03-23T13:28:22;7.80;49.90
26503;DHT22;14177;51.520;6.764;2024-03-23T13:30:56;8.00;55.30
26503;DHT22;14177;51.520;6.764;2024-03-23T13:33:23;8.30;67.70
26503;DHT22;14177;51.520;6.764;2024-03-23T13:38:16;9.00;41.90
26503;DHT22;14177;51.520;6.764;2024-03-23T13:40:58;9.10;10.00
26503;DHT22;14177;51.520;6.764;2024-03-23T13:43:26;9.10;1.00
26503;DHT22;14177;51.520;6.764;2024-03-23T13:45:55;9.20;99.90
26503;DHT22;14177;51.520;6.764;2024-03-23T13:48:24;9.40;99.90
26503;DHT22;14177;51.520;6.764;2024-03-23T13:51:04;9.90;20.90
26503;DHT22;14177;51.520;6.764;2024-03-23T13:53:31;10.10;99.90
26503;DHT22;14177;51.520;6.764;2024-03-23T13:56:00;10.80;1.00
26503;DHT22;14177;51.520;6.764;2024-03-23T13:58:26;11.10;99.90
26503;DHT22;14177;51.520;6.764;2024-03-23T14:00:52;11.60;99.90
26503;DHT22;14177;51.520;6.764;2024-03-23T14:03:19;11.00;99.50
26503;DHT22;14177;51.520;6.764;2024-03-23T14:05:45;11.30;99.90
26503;DHT22;14177;51.520;6.764;2024-03-23T14:08:12;11.30;99.90
26503;DHT22;14177;51.520;6.764;2024-03-23T14:10:41;11.50;99.30
26503;DHT22;14177;51.520;6.764;2024-03-23T14:13:07;11.30;98.50
26503;DHT22;14177;51.520;6.764;2024-03-23T14:15:33;11.20;98.80
26503;DHT22;14177;51.520;6.764;2024-03-23T14:18:00;11.10;98.70
26503;DHT22;14177;51.520;6.764;2024-03-23T14:20:26;10.90;99.00
26503;DHT22;14177;51.520;6.764;2024-03-23T14:22:52;10.60;99.20
26503;DHT22;14177;51.520;6.764;2024-03-23T14:25:18;10.00;1.00
26503;DHT22;14177;51.520;6.764;2024-03-23T14:27:45;9.90;1.00
26503;DHT22;14177;51.520;6.764;2024-03-23T14:30:12;10.20;1.00
26503;DHT22;14177;51.520;6.764;2024-03-23T14:32:39;10.10;1.00
26503;DHT22;14177;51.520;6.764;2024-03-23T14:35:06;10.60;1.00
26503;DHT22;14177;51.520;6.764;2024-03-23T14:37:34;10.40;1.00
26503;DHT22;14177;51.520;6.764;2024-03-23T14:40:00;10.20;1.00
26503;DHT22;14177;51.520;6.764;2024-03-23T14:42:26;10.40;1.00
26503;DHT22;14177;51.520;6.764;2024-03-23T14:44:52;10.80;1.00
26503;DHT22;14177;51.520;6.764;2024-03-23T14:47:19;11.10;1.00
26503;DHT22;14177;51.520;6.764;2024-03-23T14:49:46;10.80;1.00
26503;DHT22;14177;51.520;6.764;2024-03-23T14:52:16;10.60;1.00
26503;DHT22;14177;51.520;6.764;2024-03-23T14:54:44;10.20;1.00
26503;DHT22;14177;51.520;6.764;2024-03-23T14:57:10;9.90;1.00
26503;DHT22;14177;51.520;6.764;2024-03-23T14:59:37;9.90;1.00
26503;DHT22;14177;51.520;6.764;2024-03-23T15:02:07;9.60;1.00
26503;DHT22;14177;51.520;6.764;2024-03-23T15:04:34;9.60;1.00
26503;DHT22;14177;51.520;6.764;2024-03-23T15:07:00;9.60;1.00
26503;DHT22;14177;51.520;6.764;2024-03-23T15:09:27;9.90;1.00
26503;DHT22;14177;51.520;6.764;2024-03-23T15:11:53;9.90;1.00
26503;DHT22;14177;51.520;6.764;2024-03-23T15:14:23;10.10;1.00
26503;DHT22;14177;51.520;6.764;2024-03-23T15:16:50;10.60;1.00
26503;DHT22;14177;51.520;6.764;2024-03-23T15:19:16;10.70;1.00
26503;DHT22;14177;51.520;6.764;2024-03-23T15:21:43;10.50;1.00
26503;DHT22;14177;51.520;6.764;2024-03-23T15:24:10;10.50;1.00
26503;DHT22;14177;51.520;6.764;2024-03-23T15:26:39;10.60;1.00
26503;DHT22;14177;51.520;6.764;2024-03-23T15:29:06;10.60;1.00
26503;DHT22;14177;51.520;6.764;2024-03-23T15:31:40;10.60;1.00
26503;DHT22;14177;51.520;6.764;2024-03-23T15:34:07;10.50;1.00
26503;DHT22;14177;51.520;6.764;2024-03-23T15:36:39;10.60;1.00
26503;DHT22;14177;51.520;6.764;2024-03-23T15:39:05;10.50;1.00
26503;DHT22;14177;51.520;6.764;2024-03-23T15:41:32;10.70;1.00
26503;DHT22;14177;51.520;6.764;2024-03-23T15:44:00;10.50;1.00
26503;DHT22;14177;51.520;6.764;2024-03-23T15:46:26;10.50;1.00
26503;DHT22;14177;51.520;6.764;2024-03-23T15:48:51;10.50;1.00
26503;DHT22;14177;51.520;6.764;2024-03-23T15:51:18;10.10;1.00
26503;DHT22;14177;51.520;6.764;2024-03-23T15:53:44;10.00;1.00
26503;DHT22;14177;51.520;6.764;2024-03-23T15:56:10;9.90;1.00
26503;DHT22;14177;51.520;6.764;2024-03-23T15:58:36;9.70;1.00
26503;DHT22;14177;51.520;6.764;2024-03-23T16:01:05;9.60;1.00
26503;DHT22;14177;51.520;6.764;2024-03-23T16:03:35;9.60;1.00
26503;DHT22;14177;51.520;6.764;2024-03-23T16:06:06;9.50;1.00
26503;DHT22;14177;51.520;6.764;2024-03-23T16:08:33;9.70;1.00
26503;DHT22;14177;51.520;6.764;2024-03-23T16:11:07;9.60;1.00
26503;DHT22;14177;51.520;6.764;2024-03-23T16:13:35;9.60;1.00
26503;DHT22;14177;51.520;6.764;2024-03-23T16:16:03;9.40;1.00
26503;DHT22;14177;51.520;6.764;2024-03-23T16:18:32;9.50;1.00
26503;DHT22;14177;51.520;6.764;2024-03-23T16:21:04;9.40;1.00
26503;DHT22;14177;51.520;6.764;2024-03-23T16:23:35;9.30;1.00
26503;DHT22;14177;51.520;6.764;2024-03-23T16:26:04;9.20;1.00
26503;DHT22;14177;51.520;6.764;2024-03-23T16:28:34;9.20;1.00
26503;DHT22;14177;51.520;6.764;2024-03-23T16:31:01;9.00;1.00
26503;DHT22;14177;51.520;6.764;2024-03-23T16:33:30;8.90;1.00
26503;DHT22;14177;51.520;6.764;2024-03-23T16:35:57;8.70;1.00
26503;DHT22;14177;51.520;6.764;2024-03-23T16:38:36;8.80;1.00
26503;DHT22;14177;51.520;6.764;2024-03-23T16:43:36;8.40;1.00
26503;DHT22;14177;51.520;6.764;2024-03-23T16:46:04;8.10;1.00
26503;DHT22;14177;51.520;6.764;2024-03-23T16:48:32;8.10;1.00
26503;DHT22;14177;51.520;6.764;2024-03-23T16:51:00;7.80;1.00
26503;DHT22;14177;51.520;6.764;2024-03-23T16:53:29;7.60;1.80